sensor_id;sensor_type;location;lat;lon;timestamp;pressure;altitude;pressure_sealevel;temperature;humidity
24422;BME280;12600;53.326;-6.298;2023-02-20T00:01:12;101716.91;;;13.12;76.40
24422;BME280;12600;53.326;-6.298;2023-02-20T00:04:01;101721.88;;;13.10;76.99
24422;BME280;12600;53.326;-6.298;2023-02-20T00:06:51;101727.53;;;13.00;77.40
24422;BME280;12600;53.326;-6.298;2023-02-20T00:09:42;101731.13;;;13.14;76.95
24422;BME280;12600;53.326;-6.298;2023-02-20T00:12:31;101732.09;;;13.04;77.11
24422;BME280;12600;53.326;-6.298;2023-02-20T00:15:21;101702.88;;;13.13;77.08
24422;BME280;12600;53.326;-6.298;2023-02-20T00:18:11;101718.53;;;13.13;77.23
24422;BME280;12600;53.326;-6.298;2023-02-20T00:21:00;101722.88;;;13.00;77.63
24422;BME280;12600;53.326;-6.298;2023-02-20T00:23:49;101725.72;;;13.09;77.37
24422;BME280;12600;53.326;-6.298;2023-02-20T00:26:45;101724.25;;;12.98;77.85
24422;BME280;12600;53.326;-6.298;2023-02-20T00:29:35;101720.50;;;12.94;77.96
24422;BME280;12600;53.326;-6.298;2023-02-20T00:32:25;101729.84;;;12.93;78.72
24422;BME280;12600;53.326;-6.298;2023-02-20T00:35:15;101718.25;;;12.96;77.84
24422;BME280;12600;53.326;-6.298;2023-02-20T00:38:05;101729.66;;;13.03;78.21
24422;BME280;12600;53.326;-6.298;2023-02-20T00:40:55;101725.44;;;13.10;77.58
24422;BME280;12600;53.326;-6.298;2023-02-20T00:43:45;101724.78;;;13.00;78.11
24422;BME280;12600;53.326;-6.298;2023-02-20T00:46:35;101720.38;;;12.99;77.87
24422;BME280;12600;53.326;-6.298;2023-02-20T00:49:25;101730.03;;;12.96;78.44
24422;BME280;12600;53.326;-6.298;2023-02-20T00:52:27;101739.47;;;12.90;78.20
24422;BME280;12600;53.326;-6.298;2023-02-20T00:55:16;101714.63;;;13.00;77.95
24422;BME280;12600;53.326;-6.298;2023-02-20T00:58:06;101719.50;;;13.03;78.31
24422;BME280;12600;53.326;-6.298;2023-02-20T01:00:57;101725.81;;;13.04;78.06
24422;BME280;12600;53.326;-6.298;2023-02-20T01:03:46;101725.59;;;13.00;78.41
24422;BME280;12600;53.326;-6.298;2023-02-20T01:06:35;101708.34;;;13.00;78.44
24422;BME280;12600;53.326;-6.298;2023-02-20T01:09:25;101721.81;;;12.96;78.66
24422;BME280;12600;53.326;-6.298;2023-02-20T01:12:15;101710.03;;;12.96;78.48
24422;BME280;12600;53.326;-6.298;2023-02-20T01:15:05;101718.09;;;13.06;78.22
24422;BME280;12600;53.326;-6.298;2023-02-20T01:17:57;101706.00;;;13.07;78.04
24422;BME280;12600;53.326;-6.298;2023-02-20T01:20:46;101709.34;;;13.04;78.10
24422;BME280;12600;53.326;-6.298;2023-02-20T01:23:35;101699.19;;;13.04;78.07
24422;BME280;12600;53.326;-6.298;2023-02-20T01:26:25;101688.28;;;12.99;77.93
24422;BME280;12600;53.326;-6.298;2023-02-20T01:29:15;101685.47;;;13.04;78.18
24422;BME280;12600;53.326;-6.298;2023-02-20T01:32:04;101682.16;;;12.88;78.57
24422;BME280;12600;53.326;-6.298;2023-02-20T01:34:55;101684.72;;;12.99;78.23
24422;BME280;12600;53.326;-6.298;2023-02-20T01:37:45;101701.81;;;12.96;78.14
24422;BME280;12600;53.326;-6.298;2023-02-20T01:40:34;101691.44;;;12.93;78.63
24422;BME280;12600;53.326;-6.298;2023-02-20T01:43:24;101689.63;;;13.02;78.42
24422;BME280;12600;53.326;-6.298;2023-02-20T01:46:46;101689.44;;;12.79;78.89
24422;BME280;12600;53.326;-6.298;2023-02-20T01:49:42;101686.94;;;13.15;77.46
24422;BME280;12600;53.326;-6.298;2023-02-20T01:52:35;101691.88;;;13.00;78.34
24422;BME280;12600;53.326;-6.298;2023-02-20T01:55:30;101691.88;;;13.00;78.05
24422;BME280;12600;53.326;-6.298;2023-02-20T01:58:24;101677.88;;;13.15;77.55
24422;BME280;12600;53.326;-6.298;2023-02-20T02:01:14;101685.78;;;13.03;77.58
24422;BME280;12600;53.326;-6.298;2023-02-20T02:04:08;101688.34;;;13.13;77.54
24422;BME280;12600;53.326;-6.298;2023-02-20T02:07:00;101695.56;;;13.09;77.22
24422;BME280;12600;53.326;-6.298;2023-02-20T02:09:54;101679.47;;;13.02;77.15
24422;BME280;12600;53.326;-6.298;2023-02-20T02:12:51;101694.06;;;12.98;77.47
24422;BME280;12600;53.326;-6.298;2023-02-20T02:15:41;101690.66;;;13.06;77.26
24422;BME280;12600;53.326;-6.298;2023-02-20T02:18:47;101678.66;;;13.02;77.39
24422;BME280;12600;53.326;-6.298;2023-02-20T02:22:19;101675.22;;;13.10;76.84
24422;BME280;12600;53.326;-6.298;2023-02-20T02:25:34;101680.28;;;13.03;77.12
24422;BME280;12600;53.326;-6.298;2023-02-20T02:29:09;101681.72;;;13.00;77.28
24422;BME280;12600;53.326;-6.298;2023-02-20T02:32:41;101669.25;;;13.08;77.16
24422;BME280;12600;53.326;-6.298;2023-02-20T02:36:09;101679.84;;;12.96;77.46
24422;BME280;12600;53.326;-6.298;2023-02-20T02:39:10;101668.13;;;13.09;76.95
24422;BME280;12600;53.326;-6.298;2023-02-20T02:42:11;101674.28;;;13.01;76.92
24422;BME280;12600;53.326;-6.298;2023-02-20T02:45:09;101661.38;;;13.01;77.42
24422;BME280;12600;53.326;-6.298;2023-02-20T02:48:05;101660.84;;;12.99;77.87
24422;BME280;12600;53.326;-6.298;2023-02-20T02:51:02;101673.69;;;13.04;77.67
24422;BME280;12600;53.326;-6.298;2023-02-20T02:54:08;101675.88;;;12.88;78.33
24422;BME280;12600;53.326;-6.298;2023-02-20T02:57:20;101668.28;;;12.99;78.16
24422;BME280;12600;53.326;-6.298;2023-02-20T03:00:15;101659.47;;;13.02;78.28
24422;BME280;12600;53.326;-6.298;2023-02-20T03:03:10;101673.69;;;13.04;78.20
24422;BME280;12600;53.326;-6.298;2023-02-20T03:06:08;101668.69;;;13.06;78.00
24422;BME280;12600;53.326;-6.298;2023-02-20T03:09:02;101678.72;;;13.15;77.97
24422;BME280;12600;53.326;-6.298;2023-02-20T03:11:54;101668.31;;;13.12;77.49
24422;BME280;12600;53.326;-6.298;2023-02-20T03:14:50;101679.22;;;13.18;77.77
24422;BME280;12600;53.326;-6.298;2023-02-20T03:18:19;101662.44;;;13.19;77.55
24422;BME280;12600;53.326;-6.298;2023-02-20T03:21:16;101660.22;;;13.21;77.53
24422;BME280;12600;53.326;-6.298;2023-02-20T03:24:07;101657.59;;;13.30;77.16
24422;BME280;12600;53.326;-6.298;2023-02-20T03:26:58;101668.97;;;13.23;77.50
24422;BME280;12600;53.326;-6.298;2023-02-20T03:29:50;101650.88;;;13.22;77.61
24422;BME280;12600;53.326;-6.298;2023-02-20T03:32:41;101662.97;;;13.21;77.22
24422;BME280;12600;53.326;-6.298;2023-02-20T03:35:51;101647.91;;;13.19;77.13
24422;BME280;12600;53.326;-6.298;2023-02-20T03:39:04;101654.66;;;13.26;77.27
24422;BME280;12600;53.326;-6.298;2023-02-20T03:42:15;101668.78;;;13.20;77.52
24422;BME280;12600;53.326;-6.298;2023-02-20T03:45:30;101646.63;;;13.30;77.20
24422;BME280;12600;53.326;-6.298;2023-02-20T03:48:26;101652.50;;;13.23;77.22
24422;BME280;12600;53.326;-6.298;2023-02-20T03:51:18;101662.66;;;13.23;77.11
24422;BME280;12600;53.326;-6.298;2023-02-20T03:54:18;101656.91;;;13.24;77.57
24422;BME280;12600;53.326;-6.298;2023-02-20T03:57:12;101655.31;;;13.18;77.97
24422;BME280;12600;53.326;-6.298;2023-02-20T04:00:08;101648.44;;;13.21;77.53
24422;BME280;12600;53.326;-6.298;2023-02-20T04:03:11;101652.97;;;13.11;77.76
24422;BME280;12600;53.326;-6.298;2023-02-20T04:06:08;101631.22;;;13.15;78.04
24422;BME280;12600;53.326;-6.298;2023-02-20T04:09:03;101627.81;;;13.23;78.01
24422;BME280;12600;53.326;-6.298;2023-02-20T04:12:03;101632.59;;;13.31;77.52
24422;BME280;12600;53.326;-6.298;2023-02-20T04:14:57;101619.97;;;13.16;77.67
24422;BME280;12600;53.326;-6.298;2023-02-20T04:17:50;101626.09;;;13.27;78.03
24422;BME280;12600;53.326;-6.298;2023-02-20T04:20:42;101616.31;;;13.21;77.70
24422;BME280;12600;53.326;-6.298;2023-02-20T04:23:59;101619.38;;;13.20;78.33
24422;BME280;12600;53.326;-6.298;2023-02-20T04:26:51;101595.84;;;13.00;78.53
24422;BME280;12600;53.326;-6.298;2023-02-20T04:29:42;101625.72;;;13.15;78.12
24422;BME280;12600;53.326;-6.298;2023-02-20T04:32:32;101614.25;;;13.13;77.93
24422;BME280;12600;53.326;-6.298;2023-02-20T04:35:22;101620.13;;;13.06;78.34
24422;BME280;12600;53.326;-6.298;2023-02-20T04:38:13;101622.75;;;12.98;79.06
24422;BME280;12600;53.326;-6.298;2023-02-20T04:41:03;101616.06;;;13.04;78.82
24422;BME280;12600;53.326;-6.298;2023-02-20T04:43:52;101620.44;;;13.05;78.84
24422;BME280;12600;53.326;-6.298;2023-02-20T04:47:07;101588.78;;;12.80;79.21
24422;BME280;12600;53.326;-6.298;2023-02-20T04:49:57;101619.94;;;13.03;79.37
24422;BME280;12600;53.326;-6.298;2023-02-20T04:52:47;101611.69;;;13.03;79.49
24422;BME280;12600;53.326;-6.298;2023-02-20T04:55:37;101603.03;;;12.96;79.28
24422;BME280;12600;53.326;-6.298;2023-02-20T04:58:31;101600.38;;;12.91;79.55
24422;BME280;12600;53.326;-6.298;2023-02-20T05:01:36;101611.28;;;12.96;79.22
24422;BME280;12600;53.326;-6.298;2023-02-20T05:04:27;101615.84;;;12.86;80.11
24422;BME280;12600;53.326;-6.298;2023-02-20T05:07:17;101626.63;;;12.97;79.70
24422;BME280;12600;53.326;-6.298;2023-02-20T05:10:07;101631.09;;;12.93;80.02
24422;BME280;12600;53.326;-6.298;2023-02-20T05:12:57;101622.56;;;12.94;80.04
24422;BME280;12600;53.326;-6.298;2023-02-20T05:15:46;101617.88;;;12.95;80.06
24422;BME280;12600;53.326;-6.298;2023-02-20T05:18:35;101628.03;;;12.94;80.35
24422;BME280;12600;53.326;-6.298;2023-02-20T05:21:26;101620.63;;;12.95;80.45
24422;BME280;12600;53.326;-6.298;2023-02-20T05:24:33;101613.50;;;12.94;80.96
24422;BME280;12600;53.326;-6.298;2023-02-20T05:27:24;101620.19;;;12.87;80.88
24422;BME280;12600;53.326;-6.298;2023-02-20T05:30:13;101612.91;;;12.97;80.73
24422;BME280;12600;53.326;-6.298;2023-02-20T05:33:03;101615.88;;;13.00;80.67
24422;BME280;12600;53.326;-6.298;2023-02-20T05:35:52;101626.13;;;12.95;81.11
24422;BME280;12600;53.326;-6.298;2023-02-20T05:38:42;101627.66;;;13.01;81.08
24422;BME280;12600;53.326;-6.298;2023-02-20T05:41:34;101617.31;;;13.11;80.29
24422;BME280;12600;53.326;-6.298;2023-02-20T05:44:24;101624.03;;;13.19;79.77
24422;BME280;12600;53.326;-6.298;2023-02-20T05:47:13;101587.41;;;12.96;79.87
24422;BME280;12600;53.326;-6.298;2023-02-20T05:50:03;101630.13;;;13.16;80.44
24422;BME280;12600;53.326;-6.298;2023-02-20T05:52:55;101628.94;;;13.22;79.95
24422;BME280;12600;53.326;-6.298;2023-02-20T05:55:46;101628.94;;;13.22;80.24
24422;BME280;12600;53.326;-6.298;2023-02-20T05:58:36;101625.69;;;13.20;80.45
24422;BME280;12600;53.326;-6.298;2023-02-20T06:01:28;101628.47;;;13.15;80.33
24422;BME280;12600;53.326;-6.298;2023-02-20T06:04:18;101625.06;;;13.23;80.29
24422;BME280;12600;53.326;-6.298;2023-02-20T06:07:08;101626.25;;;13.17;80.64
24422;BME280;12600;53.326;-6.298;2023-02-20T06:09:57;101622.47;;;13.13;81.38
24422;BME280;12600;53.326;-6.298;2023-02-20T06:12:48;101625.16;;;13.18;81.11
24422;BME280;12600;53.326;-6.298;2023-02-20T06:15:37;101611.66;;;13.22;80.46
24422;BME280;12600;53.326;-6.298;2023-02-20T06:18:27;101614.47;;;13.16;81.28
24422;BME280;12600;53.326;-6.298;2023-02-20T06:21:16;101620.34;;;13.10;81.23
24422;BME280;12600;53.326;-6.298;2023-02-20T06:24:06;101593.69;;;12.97;81.57
24422;BME280;12600;53.326;-6.298;2023-02-20T06:26:55;101588.63;;;13.04;81.81
24422;BME280;12600;53.326;-6.298;2023-02-20T06:29:47;101613.75;;;13.11;81.66
24422;BME280;12600;53.326;-6.298;2023-02-20T06:32:37;101603.66;;;13.06;82.08
24422;BME280;12600;53.326;-6.298;2023-02-20T06:35:26;101604.47;;;13.07;82.44
24422;BME280;12600;53.326;-6.298;2023-02-20T06:38:15;101619.03;;;13.07;82.11
24422;BME280;12600;53.326;-6.298;2023-02-20T06:41:04;101582.16;;;13.00;81.66
24422;BME280;12600;53.326;-6.298;2023-02-20T06:43:54;101613.31;;;13.04;82.43
24422;BME280;12600;53.326;-6.298;2023-02-20T06:46:45;101612.81;;;13.02;82.70
24422;BME280;12600;53.326;-6.298;2023-02-20T06:49:34;101599.91;;;13.02;82.64
24422;BME280;12600;53.326;-6.298;2023-02-20T06:52:23;101609.81;;;13.17;82.27
24422;BME280;12600;53.326;-6.298;2023-02-20T06:55:13;101613.94;;;13.14;82.40
24422;BME280;12600;53.326;-6.298;2023-02-20T06:58:03;101617.09;;;13.08;82.63
24422;BME280;12600;53.326;-6.298;2023-02-20T07:00:52;101607.06;;;13.17;82.09
24422;BME280;12600;53.326;-6.298;2023-02-20T07:03:45;101620.78;;;13.17;82.52
24422;BME280;12600;53.326;-6.298;2023-02-20T07:06:35;101606.03;;;13.13;81.90
24422;BME280;12600;53.326;-6.298;2023-02-20T07:09:25;101608.41;;;13.20;81.88
24422;BME280;12600;53.326;-6.298;2023-02-20T07:12:14;101594.44;;;13.02;82.47
24422;BME280;12600;53.326;-6.298;2023-02-20T07:15:05;101600.22;;;13.01;82.75
24422;BME280;12600;53.326;-6.298;2023-02-20T07:17:55;101597.69;;;13.04;82.64
24422;BME280;12600;53.326;-6.298;2023-02-20T07:20:45;101615.44;;;13.07;82.71
24422;BME280;12600;53.326;-6.298;2023-02-20T07:23:38;101617.63;;;13.10;82.34
24422;BME280;12600;53.326;-6.298;2023-02-20T07:26:28;101624.00;;;13.05;82.99
24422;BME280;12600;53.326;-6.298;2023-02-20T07:29:18;101610.19;;;13.10;82.59
24422;BME280;12600;53.326;-6.298;2023-02-20T07:32:08;101619.75;;;13.13;83.05
24422;BME280;12600;53.326;-6.298;2023-02-20T07:34:57;101623.00;;;13.15;82.79
24422;BME280;12600;53.326;-6.298;2023-02-20T07:37:55;101632.53;;;13.04;83.43
24422;BME280;12600;53.326;-6.298;2023-02-20T07:40:44;101647.50;;;13.11;82.89
24422;BME280;12600;53.326;-6.298;2023-02-20T07:43:34;101621.91;;;13.16;82.99
24422;BME280;12600;53.326;-6.298;2023-02-20T07:46:23;101634.50;;;13.17;83.20
24422;BME280;12600;53.326;-6.298;2023-02-20T07:49:12;101624.31;;;13.04;83.68
24422;BME280;12600;53.326;-6.298;2023-02-20T07:52:02;101618.13;;;13.12;83.45
24422;BME280;12600;53.326;-6.298;2023-02-20T07:54:52;101630.63;;;13.18;82.95
24422;BME280;12600;53.326;-6.298;2023-02-20T07:57:44;101615.44;;;13.07;83.23
24422;BME280;12600;53.326;-6.298;2023-02-20T08:00:34;101608.69;;;13.18;83.59
24422;BME280;12600;53.326;-6.298;2023-02-20T08:03:23;101612.19;;;13.24;82.99
24422;BME280;12600;53.326;-6.298;2023-02-20T08:06:15;101612.38;;;13.27;83.07
24422;BME280;12600;53.326;-6.298;2023-02-20T08:09:04;101614.31;;;13.27;82.95
24422;BME280;12600;53.326;-6.298;2023-02-20T08:11:58;101619.16;;;13.16;83.00
24422;BME280;12600;53.326;-6.298;2023-02-20T08:14:49;101612.47;;;13.22;82.97
24422;BME280;12600;53.326;-6.298;2023-02-20T08:17:39;101620.91;;;13.26;82.87
24422;BME280;12600;53.326;-6.298;2023-02-20T08:20:34;101653.94;;;13.21;83.34
24422;BME280;12600;53.326;-6.298;2023-02-20T08:23:23;101631.59;;;13.27;82.80
24422;BME280;12600;53.326;-6.298;2023-02-20T08:26:13;101630.69;;;13.46;82.30
24422;BME280;12600;53.326;-6.298;2023-02-20T08:29:04;101639.03;;;13.40;82.34
24422;BME280;12600;53.326;-6.298;2023-02-20T08:31:53;101652.75;;;13.40;82.58
24422;BME280;12600;53.326;-6.298;2023-02-20T08:34:43;101637.91;;;13.41;82.40
24422;BME280;12600;53.326;-6.298;2023-02-20T08:37:32;101623.25;;;13.46;82.09
24422;BME280;12600;53.326;-6.298;2023-02-20T08:40:22;101614.50;;;13.44;81.92
24422;BME280;12600;53.326;-6.298;2023-02-20T08:43:11;101610.66;;;13.45;81.71
24422;BME280;12600;53.326;-6.298;2023-02-20T08:46:03;101635.16;;;13.55;81.34
24422;BME280;12600;53.326;-6.298;2023-02-20T08:48:53;101611.47;;;13.59;81.27
24422;BME280;12600;53.326;-6.298;2023-02-20T08:51:43;101617.16;;;13.49;81.24
24422;BME280;12600;53.326;-6.298;2023-02-20T08:54:32;101615.75;;;13.52;81.31
24422;BME280;12600;53.326;-6.298;2023-02-20T08:57:21;101629.78;;;13.64;81.13
24422;BME280;12600;53.326;-6.298;2023-02-20T09:00:13;101631.09;;;13.66;80.23
24422;BME280;12600;53.326;-6.298;2023-02-20T09:03:05;101635.28;;;13.64;79.93
24422;BME280;12600;53.326;-6.298;2023-02-20T09:05:55;101631.09;;;13.80;80.00
24422;BME280;12600;53.326;-6.298;2023-02-20T09:08:44;101637.31;;;13.72;80.26
24422;BME280;12600;53.326;-6.298;2023-02-20T09:11:34;101637.91;;;13.83;79.91
24422;BME280;12600;53.326;-6.298;2023-02-20T09:14:23;101633.53;;;13.82;79.36
24422;BME280;12600;53.326;-6.298;2023-02-20T09:17:12;101631.19;;;13.75;79.33
24422;BME280;12600;53.326;-6.298;2023-02-20T09:20:04;101647.13;;;13.87;78.75
24422;BME280;12600;53.326;-6.298;2023-02-20T09:22:58;101664.34;;;13.92;78.90
24422;BME280;12600;53.326;-6.298;2023-02-20T09:25:49;101639.13;;;13.90;79.10
24422;BME280;12600;53.326;-6.298;2023-02-20T09:28:38;101665.53;;;14.00;78.84
24422;BME280;12600;53.326;-6.298;2023-02-20T09:31:27;101644.19;;;13.83;78.81
24422;BME280;12600;53.326;-6.298;2023-02-20T09:34:20;101660.16;;;13.95;78.53
24422;BME280;12600;53.326;-6.298;2023-02-20T09:37:11;101663.22;;;13.93;78.13
24422;BME280;12600;53.326;-6.298;2023-02-20T09:40:00;101671.44;;;14.07;78.17
24422;BME280;12600;53.326;-6.298;2023-02-20T09:43:13;101664.09;;;14.16;77.77
24422;BME280;12600;53.326;-6.298;2023-02-20T09:46:10;101666.34;;;14.14;77.60
24422;BME280;12600;53.326;-6.298;2023-02-20T09:49:10;101657.38;;;14.09;77.26
24422;BME280;12600;53.326;-6.298;2023-02-20T09:52:04;101638.44;;;14.21;77.32
24422;BME280;12600;53.326;-6.298;2023-02-20T09:55:03;101634.19;;;14.15;77.25
24422;BME280;12600;53.326;-6.298;2023-02-20T09:57:57;101640.66;;;14.19;76.82
24422;BME280;12600;53.326;-6.298;2023-02-20T10:00:50;101647.75;;;14.34;76.93
24422;BME280;12600;53.326;-6.298;2023-02-20T10:03:53;101629.97;;;14.31;76.56
24422;BME280;12600;53.326;-6.298;2023-02-20T10:06:46;101639.91;;;14.41;76.29
24422;BME280;12600;53.326;-6.298;2023-02-20T10:09:38;101634.06;;;14.56;75.87
24422;BME280;12600;53.326;-6.298;2023-02-20T10:12:50;101634.78;;;14.62;75.31
24422;BME280;12600;53.326;-6.298;2023-02-20T10:15:47;101623.56;;;14.58;75.00
24422;BME280;12600;53.326;-6.298;2023-02-20T10:18:50;101623.31;;;14.46;75.28
24422;BME280;12600;53.326;-6.298;2023-02-20T10:21:56;101630.91;;;14.63;75.19
24422;BME280;12600;53.326;-6.298;2023-02-20T10:25:10;101618.75;;;14.64;74.82
24422;BME280;12600;53.326;-6.298;2023-02-20T10:28:07;101617.63;;;14.65;74.32
24422;BME280;12600;53.326;-6.298;2023-02-20T10:30:59;101631.00;;;14.58;74.68
24422;BME280;12600;53.326;-6.298;2023-02-20T10:33:57;101613.38;;;14.59;74.42
24422;BME280;12600;53.326;-6.298;2023-02-20T10:36:51;101597.56;;;14.64;74.56
24422;BME280;12600;53.326;-6.298;2023-02-20T10:39:48;101602.81;;;14.74;74.11
24422;BME280;12600;53.326;-6.298;2023-02-20T10:42:46;101606.38;;;14.75;74.24
24422;BME280;12600;53.326;-6.298;2023-02-20T10:45:49;101607.91;;;14.90;73.79
24422;BME280;12600;53.326;-6.298;2023-02-20T10:48:40;101607.00;;;14.94;73.11
24422;BME280;12600;53.326;-6.298;2023-02-20T10:51:36;101607.19;;;15.06;72.71
24422;BME280;12600;53.326;-6.298;2023-02-20T10:54:33;101594.44;;;15.10;72.75
24422;BME280;12600;53.326;-6.298;2023-02-20T10:57:28;101606.72;;;15.04;72.20
24422;BME280;12600;53.326;-6.298;2023-02-20T11:00:21;101612.53;;;15.03;72.31
24422;BME280;12600;53.326;-6.298;2023-02-20T11:03:17;101608.47;;;15.00;72.70
24422;BME280;12600;53.326;-6.298;2023-02-20T11:06:13;101614.59;;;14.97;72.60
24422;BME280;12600;53.326;-6.298;2023-02-20T11:09:04;101630.19;;;15.02;72.29
24422;BME280;12600;53.326;-6.298;2023-02-20T11:11:55;101612.69;;;15.06;71.90
24422;BME280;12600;53.326;-6.298;2023-02-20T11:14:45;101615.53;;;15.24;71.55
24422;BME280;12600;53.326;-6.298;2023-02-20T11:17:38;101610.41;;;15.39;71.42
24422;BME280;12600;53.326;-6.298;2023-02-20T11:20:43;101615.78;;;15.45;70.37
24422;BME280;12600;53.326;-6.298;2023-02-20T11:23:38;101614.94;;;15.66;69.96
24422;BME280;12600;53.326;-6.298;2023-02-20T11:26:31;101628.22;;;15.64;69.54
24422;BME280;12600;53.326;-6.298;2023-02-20T11:29:23;101617.81;;;15.61;69.39
24422;BME280;12600;53.326;-6.298;2023-02-20T11:32:32;101602.94;;;15.71;68.71
24422;BME280;12600;53.326;-6.298;2023-02-20T11:35:28;101584.81;;;15.79;68.55
24422;BME280;12600;53.326;-6.298;2023-02-20T11:38:31;101589.69;;;15.90;68.15
24422;BME280;12600;53.326;-6.298;2023-02-20T11:41:30;101574.97;;;16.30;67.32
24422;BME280;12600;53.326;-6.298;2023-02-20T11:44:24;101567.75;;;16.81;65.68
24422;BME280;12600;53.326;-6.298;2023-02-20T11:47:21;101568.41;;;17.33;62.78
24422;BME280;12600;53.326;-6.298;2023-02-20T11:50:17;101583.97;;;17.67;60.72
24422;BME280;12600;53.326;-6.298;2023-02-20T11:53:19;101574.31;;;17.82;59.79
24422;BME280;12600;53.326;-6.298;2023-02-20T11:56:13;101591.72;;;18.03;59.48
24422;BME280;12600;53.326;-6.298;2023-02-20T11:59:28;101595.06;;;17.88;58.72
24422;BME280;12600;53.326;-6.298;2023-02-20T12:02:26;101595.19;;;17.62;58.96
24422;BME280;12600;53.326;-6.298;2023-02-20T12:05:16;101589.94;;;17.40;59.98
24422;BME280;12600;53.326;-6.298;2023-02-20T12:08:35;101590.91;;;17.05;61.27
24422;BME280;12600;53.326;-6.298;2023-02-20T12:11:30;101595.69;;;16.88;62.64
24422;BME280;12600;53.326;-6.298;2023-02-20T12:14:20;101596.31;;;16.67;63.16
24422;BME280;12600;53.326;-6.298;2023-02-20T12:17:20;101591.63;;;16.59;63.54
24422;BME280;12600;53.326;-6.298;2023-02-20T12:20:16;101592.44;;;16.68;63.91
24422;BME280;12600;53.326;-6.298;2023-02-20T12:23:19;101590.69;;;16.72;64.23
24422;BME280;12600;53.326;-6.298;2023-02-20T12:26:21;101587.91;;;16.81;63.34
24422;BME280;12600;53.326;-6.298;2023-02-20T12:29:23;101592.06;;;16.96;62.82
24422;BME280;12600;53.326;-6.298;2023-02-20T12:32:29;101593.94;;;17.21;62.00
24422;BME280;12600;53.326;-6.298;2023-02-20T12:35:30;101596.16;;;17.37;60.42
24422;BME280;12600;53.326;-6.298;2023-02-20T12:38:33;101603.19;;;17.55;59.51
24422;BME280;12600;53.326;-6.298;2023-02-20T12:41:37;101592.06;;;17.43;59.08
24422;BME280;12600;53.326;-6.298;2023-02-20T12:44:43;101593.63;;;17.14;60.17
24422;BME280;12600;53.326;-6.298;2023-02-20T12:47:39;101597.63;;;16.87;61.34
24422;BME280;12600;53.326;-6.298;2023-02-20T12:50:45;101591.28;;;16.87;61.42
24422;BME280;12600;53.326;-6.298;2023-02-20T12:53:50;101599.09;;;16.76;61.54
24422;BME280;12600;53.326;-6.298;2023-02-20T12:57:02;101594.38;;;16.94;61.54
24422;BME280;12600;53.326;-6.298;2023-02-20T12:59:58;101580.22;;;16.95;62.10
24422;BME280;12600;53.326;-6.298;2023-02-20T13:02:52;101568.13;;;16.70;62.46
24422;BME280;12600;53.326;-6.298;2023-02-20T13:05:47;101577.66;;;16.82;62.29
24422;BME280;12600;53.326;-6.298;2023-02-20T13:08:44;101578.66;;;16.68;62.28
24422;BME280;12600;53.326;-6.298;2023-02-20T13:11:41;101563.28;;;16.33;63.63
24422;BME280;12600;53.326;-6.298;2023-02-20T13:14:47;101564.72;;;16.39;63.73
24422;BME280;12600;53.326;-6.298;2023-02-20T13:17:50;101579.16;;;16.27;64.09
24422;BME280;12600;53.326;-6.298;2023-02-20T13:20:46;101576.91;;;16.29;64.48
24422;BME280;12600;53.326;-6.298;2023-02-20T13:23:39;101573.03;;;16.13;65.24
24422;BME280;12600;53.326;-6.298;2023-02-20T13:26:48;101567.00;;;16.19;65.01
24422;BME280;12600;53.326;-6.298;2023-02-20T13:29:56;101567.31;;;16.18;64.87
24422;BME280;12600;53.326;-6.298;2023-02-20T13:33:11;101570.25;;;16.13;65.68
24422;BME280;12600;53.326;-6.298;2023-02-20T13:36:00;101564.25;;;16.19;65.25
24422;BME280;12600;53.326;-6.298;2023-02-20T13:39:43;101565.22;;;16.15;65.32
24422;BME280;12600;53.326;-6.298;2023-02-20T13:42:33;101558.72;;;16.19;65.55
24422;BME280;12600;53.326;-6.298;2023-02-20T13:45:38;101555.34;;;16.05;65.55
24422;BME280;12600;53.326;-6.298;2023-02-20T13:48:41;101560.69;;;16.10;65.83
24422;BME280;12600;53.326;-6.298;2023-02-20T13:51:36;101555.66;;;16.12;65.99
24422;BME280;12600;53.326;-6.298;2023-02-20T13:54:29;101551.44;;;16.06;66.76
24422;BME280;12600;53.326;-6.298;2023-02-20T13:57:19;101556.16;;;16.06;66.63
24422;BME280;12600;53.326;-6.298;2023-02-20T14:00:25;101554.03;;;15.94;66.92
24422;BME280;12600;53.326;-6.298;2023-02-20T14:03:24;101555.81;;;15.90;67.52
24422;BME280;12600;53.326;-6.298;2023-02-20T14:06:17;101556.44;;;15.87;67.54
24422;BME280;12600;53.326;-6.298;2023-02-20T14:09:15;101553.88;;;15.99;67.15
24422;BME280;12600;53.326;-6.298;2023-02-20T14:12:10;101570.06;;;15.92;66.86
24422;BME280;12600;53.326;-6.298;2023-02-20T14:15:04;101572.50;;;15.85;66.78
24422;BME280;12600;53.326;-6.298;2023-02-20T14:17:56;101544.94;;;15.85;66.97
24422;BME280;12600;53.326;-6.298;2023-02-20T14:20:46;101565.16;;;15.72;67.00
24422;BME280;12600;53.326;-6.298;2023-02-20T14:23:37;101559.97;;;15.61;67.32
24422;BME280;12600;53.326;-6.298;2023-02-20T14:26:31;101551.72;;;15.70;66.90
24422;BME280;12600;53.326;-6.298;2023-02-20T14:29:23;101549.97;;;15.83;66.77
24422;BME280;12600;53.326;-6.298;2023-02-20T14:32:13;101555.47;;;15.83;66.90
24422;BME280;12600;53.326;-6.298;2023-02-20T14:35:09;101551.09;;;15.82;66.45
24422;BME280;12600;53.326;-6.298;2023-02-20T14:38:12;101546.56;;;15.77;66.68
24422;BME280;12600;53.326;-6.298;2023-02-20T14:41:14;101548.19;;;15.87;66.26
24422;BME280;12600;53.326;-6.298;2023-02-20T14:44:13;101550.31;;;15.90;65.96
24422;BME280;12600;53.326;-6.298;2023-02-20T14:47:08;101555.16;;;15.93;65.96
24422;BME280;12600;53.326;-6.298;2023-02-20T14:50:14;101546.41;;;15.91;65.81
24422;BME280;12600;53.326;-6.298;2023-02-20T14:53:12;101542.66;;;15.95;65.94
24422;BME280;12600;53.326;-6.298;2023-02-20T14:56:13;101526.94;;;15.96;65.62
24422;BME280;12600;53.326;-6.298;2023-02-20T14:59:26;101537.81;;;16.01;65.37
24422;BME280;12600;53.326;-6.298;2023-02-20T15:02:19;101536.03;;;16.05;65.54
24422;BME280;12600;53.326;-6.298;2023-02-20T15:05:28;101527.28;;;16.20;65.62